Buscolante III — HBY4411 — position and weather

sailwx.info

Track history (hours):
 
Tides and Currents Weather Stations Pressure Air Temp Water Temp Dewpoint Dewpoint Depression Visibility Wind Speed Wind Dir Waves Ship Positions

Buscolante III

Last reported at 2018-Apr-22 14:56 UTC. Time now 2018-May-20 22:53 UTC.
Position N 44°25' E 008°56'.
Warning: this ship's position is 28 days out of date.

Length 15 m.

Type: Sailing vessel. MMSI: 269102760.

Date/timePositionNaut miles runAvg speedWind from/ knotsBaromVisibWave heightAir tempDewpointWater temp
2018-Apr-22 14:56N 44°25' E 008°56'0 0.0
2018-Apr-22 14:26N 44°25' E 008°56'0 0.8
2018-Apr-22 13:59N 44°25' E 008°55'2 4.8
2018-Apr-22 13:30N 44°23' E 008°58'3 5.7
2018-Apr-22 13:00N 44°22' E 009°02'1 2.5
2018-Apr-22 12:26N 44°22' E 009°03'2 4.0
2018-Apr-22 11:58N 44°21' E 009°06'2 5.4
2018-Apr-22 11:30N 44°19' E 009°08'3 5.3
2018-Apr-22 11:00N 44°16' E 009°09'2 3.2
2018-Apr-22 10:30N 44°17' E 009°11'2 3.2
2018-Apr-22 10:00N 44°17' E 009°13'0 0.0
2018-Apr-21 15:35N 44°18' E 009°14'0 4.6
2018-Apr-21 15:30N 44°17' E 009°14'2 3.7
2018-Apr-21 15:00N 44°16' E 009°12'1 2.6
2018-Apr-21 14:30N 44°17' E 009°11'2 3.1
2018-Apr-21 14:00N 44°18' E 009°10'2 3.1
2018-Apr-21 13:30N 44°19' E 009°08'2 3.7
2018-Apr-21 13:00N 44°20' E 009°06'1 2.3
2018-Apr-21 12:30N 44°20' E 009°05'1 2.9
2018-Apr-21 12:00N 44°21' E 009°03'1 1.9
2018-Apr-21 11:29N 44°22' E 009°02'2 4.9
2018-Apr-21 11:00N 44°23' E 008°59'0 0.8
2018-Apr-21 10:28N 44°23' E 008°58'1 1.4
2018-Apr-21 10:00N 44°23' E 008°57'2 3.4
2018-Apr-21 09:30N 44°24' E 008°55'1 1.0
2018-Apr-21 08:57N 44°23' E 008°56'  
2018-Apr-14 17:46N 44°25' E 008°56'  
Track history (hours):
 
Tides and Currents Weather Stations Pressure Air Temp Water Temp Dewpoint Dewpoint Depression Visibility Wind Speed Wind Dir Waves Ship Positions

Buscolante III

Last reported at 2018-Apr-22 14:56 UTC. Time now 2018-May-20 22:53 UTC.
Position N 44°25' E 008°56'.
Warning: this ship's position is 28 days out of date.

Length 15 m.

Type: Sailing vessel. MMSI: 269102760.

Date/timePositionNaut miles runAvg speedWind from/ knotsBaromVisibWave heightAir tempDewpointWater temp
2018-Apr-22 14:56N 44°25' E 008°56'0 0.0
2018-Apr-22 14:26N 44°25' E 008°56'0 0.8
2018-Apr-22 13:59N 44°25' E 008°55'2 4.8
2018-Apr-22 13:30N 44°23' E 008°58'3 5.7
2018-Apr-22 13:00N 44°22' E 009°02'1 2.5
2018-Apr-22 12:26N 44°22' E 009°03'2 4.0
2018-Apr-22 11:58N 44°21' E 009°06'2 5.4
2018-Apr-22 11:30N 44°19' E 009°08'3 5.3
2018-Apr-22 11:00N 44°16' E 009°09'2 3.2
2018-Apr-22 10:30N 44°17' E 009°11'2 3.2
2018-Apr-22 10:00N 44°17' E 009°13'0 0.0
2018-Apr-21 15:35N 44°18' E 009°14'0 4.6
2018-Apr-21 15:30N 44°17' E 009°14'2 3.7
2018-Apr-21 15:00N 44°16' E 009°12'1 2.6
2018-Apr-21 14:30N 44°17' E 009°11'2 3.1
2018-Apr-21 14:00N 44°18' E 009°10'2 3.1
2018-Apr-21 13:30N 44°19' E 009°08'2 3.7
2018-Apr-21 13:00N 44°20' E 009°06'1 2.3
2018-Apr-21 12:30N 44°20' E 009°05'1 2.9
2018-Apr-21 12:00N 44°21' E 009°03'1 1.9
2018-Apr-21 11:29N 44°22' E 009°02'2 4.9
2018-Apr-21 11:00N 44°23' E 008°59'0 0.8
2018-Apr-21 10:28N 44°23' E 008°58'1 1.4
2018-Apr-21 10:00N 44°23' E 008°57'2 3.4
2018-Apr-21 09:30N 44°24' E 008°55'1 1.0
2018-Apr-21 08:57N 44°23' E 008°56'  
2018-Apr-14 17:46N 44°25' E 008°56'  

Dump ship's entire track history